Time;durP1;ratioP1;P1;durP2;ratioP2;P2;SDS_P1;SDS_P2;PMS_P1;PMS_P2;Temp;Humidity;BMP_temperature;BMP_pressure;BME280_temperature;BME280_humidity;BME280_pressure;Samples;Min_cycle;Max_cycle;Signal;HPM_P1;HPM_P2
2021/09/17 00:01:32;;;;;;;32.33;7.18;;;;;;;;;;5032918;28;20034;-47
2021/09/17 00:03:58;;;;;;;42.72;12.80;;;;;;;;;;5032649;28;20030;-47
2021/09/17 00:06:24;;;;;;;29.38;8.10;;;;;;;;;;5032798;28;20385;-47
2021/09/17 00:08:50;;;;;;;24.45;7.30;;;;;;;;;;5032785;28;20022;-46
2021/09/17 00:11:17;;;;;;;26.23;7.00;;;;;;;;;;5032756;28;20026;-46
2021/09/17 00:13:43;;;;;;;26.13;7.15;;;;;;;;;;5032683;28;20496;-48
2021/09/17 00:16:09;;;;;;;31.27;7.85;;;;;;;;;;5032626;28;20032;-46
2021/09/17 00:18:35;;;;;;;24.92;7.63;;;;;;;;;;5032686;28;20013;-47
2021/09/17 00:21:01;;;;;;;26.02;7.05;;;;;;;;;;5032627;28;20044;-45
2021/09/17 00:23:27;;;;;;;32.38;7.85;;;;;;;;;;5032470;28;20045;-46
2021/09/17 00:25:53;;;;;;;23.02;7.45;;;;;;;;;;5031470;28;20021;-45
2021/09/17 00:28:22;;;;;;;24.88;6.57;;;;;;;;;;5032546;28;20025;-44
2021/09/17 00:30:48;;;;;;;28.70;7.35;;;;;;;;;;5032644;28;20147;-48
2021/09/17 00:33:16;;;;;;;33.65;7.60;;;;;;;;;;5032584;28;20110;-47
2021/09/17 00:35:42;;;;;;;29.35;7.57;;;;;;;;;;5035763;28;20036;-46
2021/09/17 00:38:08;;;;;;;28.08;7.00;;;;;;;;;;5036268;28;20469;-46
2021/09/17 00:40:35;;;;;;;31.30;7.55;;;;;;;;;;5036128;28;20033;-48
2021/09/17 00:43:01;;;;;;;27.33;6.72;;;;;;;;;;5036150;28;20028;-48
2021/09/17 00:45:29;;;;;;;24.73;7.20;;;;;;;;;;5036139;28;20101;-48
2021/09/17 00:47:56;;;;;;;32.35;6.93;;;;;;;;;;5036282;28;20512;-48
2021/09/17 00:50:22;;;;;;;28.20;7.10;;;;;;;;;;5036269;28;20473;-49
2021/09/17 00:52:49;;;;;;;32.45;8.05;;;;;;;;;;5035952;28;20025;-46
2021/09/17 00:55:15;;;;;;;30.45;6.70;;;;;;;;;;5035932;28;20418;-47
2021/09/17 00:57:43;;;;;;;28.65;6.43;;;;;;;;;;5035981;28;20025;-50
2021/09/17 01:00:11;;;;;;;25.73;6.90;;;;;;;;;;5035953;28;20511;-47
2021/09/17 01:02:37;;;;;;;25.98;6.35;;;;;;;;;;5035878;28;20034;-46
2021/09/17 01:05:05;;;;;;;27.48;6.72;;;;;;;;;;5035749;28;20068;-46
2021/09/17 01:07:31;;;;;;;30.35;6.97;;;;;;;;;;5035726;28;20392;-47
2021/09/17 01:09:58;;;;;;;22.30;6.28;;;;;;;;;;5036951;28;20053;-48
2021/09/17 01:12:24;;;;;;;25.17;6.18;;;;;;;;;;5055385;28;20028;-47
2021/09/17 01:14:50;;;;;;;24.95;6.50;;;;;;;;;;5055493;28;20025;-46
2021/09/17 01:17:18;;;;;;;32.78;7.07;;;;;;;;;;5055517;28;20419;-46
2021/09/17 01:19:45;;;;;;;30.20;6.75;;;;;;;;;;5055281;28;20037;-46
2021/09/17 01:22:11;;;;;;;27.17;6.95;;;;;;;;;;5055333;28;20028;-47
2021/09/17 01:24:38;;;;;;;29.27;6.20;;;;;;;;;;5055043;28;20566;-46
2021/09/17 01:27:06;;;;;;;37.35;6.45;;;;;;;;;;5055324;28;20029;-46
2021/09/17 01:29:32;;;;;;;25.27;6.32;;;;;;;;;;5055378;28;20047;-47
2021/09/17 01:31:59;;;;;;;25.02;6.82;;;;;;;;;;5055322;28;20461;-46
2021/09/17 01:34:25;;;;;;;21.90;6.00;;;;;;;;;;5053854;28;20025;-47
2021/09/17 01:36:52;;;;;;;25.85;6.45;;;;;;;;;;5055117;28;20079;-47
2021/09/17 01:39:18;;;;;;;28.00;5.80;;;;;;;;;;5054836;28;20024;-46
2021/09/17 01:41:45;;;;;;;28.33;7.30;;;;;;;;;;5054865;28;20036;-46
2021/09/17 01:44:11;;;;;;;28.00;6.85;;;;;;;;;;5053697;28;20056;-46
2021/09/17 01:46:37;;;;;;;29.80;6.10;;;;;;;;;;5054667;28;20036;-45
2021/09/17 01:49:03;;;;;;;33.85;7.55;;;;;;;;;;5054996;28;20025;-47
2021/09/17 01:51:34;;;;;;;36.55;7.28;;;;;;;;;;5054907;28;20043;-46
2021/09/17 01:54:02;;;;;;;22.13;6.90;;;;;;;;;;5054824;28;20025;-46
2021/09/17 01:56:28;;;;;;;26.42;7.22;;;;;;;;;;5054593;28;20503;-46
2021/09/17 01:58:57;;;;;;;26.10;6.45;;;;;;;;;;5054728;28;20354;-46
2021/09/17 02:01:23;;;;;;;34.72;7.35;;;;;;;;;;5054864;28;20142;-47
2021/09/17 02:03:49;;;;;;;31.33;6.65;;;;;;;;;;5054449;28;20032;-46
2021/09/17 02:06:24;;;;;;;25.95;6.95;;;;;;;;;;5054637;28;20033;-46
2021/09/17 02:08:50;;;;;;;31.65;7.63;;;;;;;;;;5054595;28;20057;-46
2021/09/17 02:11:16;;;;;;;32.80;7.70;;;;;;;;;;5054285;28;20033;-46
2021/09/17 02:13:43;;;;;;;27.00;6.40;;;;;;;;;;5054641;28;20025;-45
2021/09/17 02:16:09;;;;;;;24.02;6.45;;;;;;;;;;5054428;28;20495;-46
2021/09/17 02:18:35;;;;;;;31.17;7.35;;;;;;;;;;5054511;28;20021;-45
2021/09/17 02:21:03;;;;;;;30.20;7.90;;;;;;;;;;5054266;28;20029;-45
2021/09/17 02:23:30;;;;;;;25.85;7.13;;;;;;;;;;5054058;28;20140;-47
2021/09/17 02:25:56;;;;;;;25.40;7.45;;;;;;;;;;5053990;28;20029;-47
2021/09/17 02:28:22;;;;;;;27.88;7.22;;;;;;;;;;5054143;28;20025;-46
2021/09/17 02:30:48;;;;;;;28.92;7.97;;;;;;;;;;5054053;28;20029;-47
2021/09/17 02:33:14;;;;;;;30.73;8.35;;;;;;;;;;5054271;28;20029;-46
2021/09/17 02:35:45;;;;;;;36.33;8.57;;;;;;;;;;5054066;28;20029;-46
2021/09/17 02:38:11;;;;;;;27.33;8.85;;;;;;;;;;5053962;28;20154;-45
2021/09/17 02:40:37;;;;;;;33.65;9.25;;;;;;;;;;5053789;28;20531;-46
2021/09/17 02:43:03;;;;;;;50.17;13.60;;;;;;;;;;5054082;28;20350;-48
2021/09/17 02:45:30;;;;;;;47.67;14.82;;;;;;;;;;5053977;28;20044;-47
2021/09/17 02:47:56;;;;;;;52.80;16.27;;;;;;;;;;5053886;28;20075;-47
2021/09/17 02:50:22;;;;;;;57.88;15.70;;;;;;;;;;5053650;28;20036;-46
2021/09/17 02:52:50;;;;;;;45.72;14.43;;;;;;;;;;5053657;28;20037;-46
2021/09/17 02:55:16;;;;;;;59.67;16.75;;;;;;;;;;5053543;28;20385;-46
2021/09/17 02:57:42;;;;;;;44.42;15.88;;;;;;;;;;5052773;28;20021;-46
2021/09/17 03:00:09;;;;;;;53.67;16.08;;;;;;;;;;5053561;28;20392;-47
2021/09/17 03:02:36;;;;;;;52.70;16.35;;;;;;;;;;5053603;28;20043;-48
2021/09/17 03:05:04;;;;;;;50.15;14.23;;;;;;;;;;5053222;28;20025;-48
2021/09/17 03:07:30;;;;;;;47.35;13.65;;;;;;;;;;5053541;28;20040;-48
2021/09/17 03:09:56;;;;;;;50.80;14.15;;;;;;;;;;5053411;28;20098;-47
2021/09/17 03:12:22;;;;;;;50.30;13.88;;;;;;;;;;5053199;28;20097;-47
2021/09/17 03:14:48;;;;;;;40.67;12.85;;;;;;;;;;5053392;28;20079;-48
2021/09/17 03:17:14;;;;;;;48.88;14.98;;;;;;;;;;5053388;28;20062;-46
2021/09/17 03:19:40;;;;;;;45.70;13.73;;;;;;;;;;5053399;28;20029;-47
2021/09/17 03:22:07;;;;;;;52.85;14.82;;;;;;;;;;5053323;28;20108;-47
2021/09/17 03:24:33;;;;;;;44.72;14.02;;;;;;;;;;5052975;28;20044;-46
2021/09/17 03:26:59;;;;;;;46.10;15.00;;;;;;;;;;5052995;28;20496;-48
2021/09/17 03:29:25;;;;;;;48.42;14.25;;;;;;;;;;5053353;28;20370;-45
2021/09/17 03:31:51;;;;;;;45.83;13.23;;;;;;;;;;5053129;28;20068;-46
2021/09/17 03:34:17;;;;;;;39.05;11.95;;;;;;;;;;5053032;28;20052;-45
2021/09/17 03:36:43;;;;;;;34.03;12.75;;;;;;;;;;5053089;28;20071;-46
2021/09/17 03:39:10;;;;;;;45.17;13.18;;;;;;;;;;5053043;28;20036;-47
2021/09/17 03:41:36;;;;;;;37.13;13.25;;;;;;;;;;5052751;28;20094;-44
2021/09/17 03:44:03;;;;;;;50.95;14.55;;;;;;;;;;5053231;28;20049;-47
2021/09/17 03:46:29;;;;;;;39.03;12.60;;;;;;;;;;5052992;28;20025;-46
2021/09/17 03:48:55;;;;;;;52.78;14.20;;;;;;;;;;5052974;28;20025;-47
2021/09/17 03:51:21;;;;;;;48.40;13.30;;;;;;;;;;5052948;28;20464;-47
2021/09/17 03:53:47;;;;;;;47.35;14.20;;;;;;;;;;5052918;28;20432;-47
2021/09/17 03:56:13;;;;;;;48.08;13.80;;;;;;;;;;5052751;28;20017;-47
2021/09/17 03:58:39;;;;;;;40.72;13.73;;;;;;;;;;5052796;28;20465;-47
2021/09/17 04:01:07;;;;;;;41.15;13.18;;;;;;;;;;5052926;28;20037;-48
2021/09/17 04:03:33;;;;;;;41.47;13.88;;;;;;;;;;5052774;28;20066;-47
2021/09/17 04:05:59;;;;;;;46.45;14.32;;;;;;;;;;5052824;28;20039;-47
2021/09/17 04:08:25;;;;;;;45.60;12.05;;;;;;;;;;5053963;28;20078;-54
2021/09/17 04:10:52;;;;;;;49.35;13.82;;;;;;;;;;5056621;28;20414;-53
2021/09/17 04:13:18;;;;;;;44.88;13.35;;;;;;;;;;5056762;28;20108;-46
2021/09/17 04:15:44;;;;;;;52.17;12.82;;;;;;;;;;5056904;28;20530;-45
2021/09/17 04:18:10;;;;;;;37.33;12.13;;;;;;;;;;5056719;28;20074;-45
2021/09/17 04:20:36;;;;;;;45.72;12.25;;;;;;;;;;5056608;28;20029;-45
2021/09/17 04:23:02;;;;;;;33.95;12.27;;;;;;;;;;5056292;28;20037;-44
2021/09/17 04:25:28;;;;;;;34.97;11.13;;;;;;;;;;5056287;28;20036;-45
2021/09/17 04:27:55;;;;;;;33.50;10.75;;;;;;;;;;5056378;28;20024;-45
2021/09/17 04:30:21;;;;;;;35.63;10.52;;;;;;;;;;5056437;28;20025;-47
2021/09/17 04:32:47;;;;;;;34.40;9.48;;;;;;;;;;5056085;28;20048;-46
2021/09/17 04:35:13;;;;;;;36.67;10.73;;;;;;;;;;5056354;28;20027;-46
2021/09/17 04:37:41;;;;;;;38.10;11.45;;;;;;;;;;5056081;28;20029;-44
2021/09/17 04:40:07;;;;;;;38.15;9.80;;;;;;;;;;5056110;28;20045;-47
2021/09/17 04:42:33;;;;;;;33.55;10.38;;;;;;;;;;5055947;28;20028;-46
2021/09/17 04:44:59;;;;;;;42.10;12.43;;;;;;;;;;5056015;28;20028;-46
2021/09/17 04:47:25;;;;;;;37.15;12.05;;;;;;;;;;5054949;28;20067;-48
2021/09/17 04:49:52;;;;;;;39.83;11.25;;;;;;;;;;5055905;28;20067;-46
2021/09/17 04:52:18;;;;;;;164.20;20.50;;;;;;;;;;5055917;28;20036;-45
2021/09/17 04:54:44;;;;;;;56.55;17.58;;;;;;;;;;5055800;28;20375;-46
2021/09/17 04:57:15;;;;;;;59.83;18.58;;;;;;;;;;5055645;28;20028;-47
2021/09/17 04:59:41;;;;;;;45.53;12.60;;;;;;;;;;5055761;28;20519;-46
2021/09/17 05:02:07;;;;;;;44.30;12.15;;;;;;;;;;5056037;28;20120;-47
2021/09/17 05:04:33;;;;;;;37.03;11.13;;;;;;;;;;5055683;28;20029;-46
2021/09/17 05:06:59;;;;;;;67.82;20.35;;;;;;;;;;5055935;28;20029;-48
2021/09/17 05:09:26;;;;;;;180.05;87.65;;;;;;;;;;5055747;28;20104;-49
2021/09/17 05:11:52;;;;;;;734.17;308.25;;;;;;;;;;5055369;28;20063;-42
2021/09/17 05:14:18;;;;;;;368.67;191.05;;;;;;;;;;5055529;28;20108;-42
2021/09/17 05:16:45;;;;;;;183.88;88.70;;;;;;;;;;5055437;28;20025;-44
2021/09/17 05:19:14;;;;;;;720.08;468.48;;;;;;;;;;5055272;28;20071;-52
2021/09/17 05:21:40;;;;;;;812.70;646.10;;;;;;;;;;5054573;28;20430;-47
2021/09/17 05:24:06;;;;;;;1142.03;739.10;;;;;;;;;;5055116;28;20052;-46
2021/09/17 05:26:33;;;;;;;473.00;324.50;;;;;;;;;;5054983;28;20021;-49
2021/09/17 05:28:59;;;;;;;158.30;96.13;;;;;;;;;;5055181;28;20017;-43
2021/09/17 05:31:25;;;;;;;132.70;71.88;;;;;;;;;;5055187;28;20036;-41
2021/09/17 05:33:51;;;;;;;44.45;19.77;;;;;;;;;;5054981;28;20129;-44
2021/09/17 05:36:17;;;;;;;375.67;242.10;;;;;;;;;;5055222;28;20029;-46
2021/09/17 05:38:43;;;;;;;60.47;18.58;;;;;;;;;;5054935;28;20020;-41
2021/09/17 05:41:09;;;;;;;250.32;155.65;;;;;;;;;;5054962;28;20061;-46
2021/09/17 05:43:35;;;;;;;397.58;254.55;;;;;;;;;;5054958;28;20528;-48
2021/09/17 05:46:02;;;;;;;477.30;365.48;;;;;;;;;;5054881;28;20033;-41
2021/09/17 05:48:28;;;;;;;91.93;54.03;;;;;;;;;;5054897;28;20032;-45
2021/09/17 05:50:54;;;;;;;43.83;14.52;;;;;;;;;;5054817;28;20036;-45
2021/09/17 05:53:20;;;;;;;49.80;18.45;;;;;;;;;;5055158;28;20340;-46
2021/09/17 05:55:46;;;;;;;37.55;12.63;;;;;;;;;;5054720;28;20025;-46
2021/09/17 05:58:12;;;;;;;40.30;15.45;;;;;;;;;;5054624;28;20048;-47
2021/09/17 06:00:38;;;;;;;39.50;11.85;;;;;;;;;;5054554;28;20499;-48
2021/09/17 06:03:04;;;;;;;29.02;9.30;;;;;;;;;;5054467;28;20033;-47
2021/09/17 06:05:30;;;;;;;34.20;9.80;;;;;;;;;;5054540;28;20557;-46
2021/09/17 06:07:56;;;;;;;34.25;9.48;;;;;;;;;;5054428;28;20029;-46
2021/09/17 06:10:23;;;;;;;31.55;9.52;;;;;;;;;;5054417;28;20053;-47
2021/09/17 06:12:51;;;;;;;41.60;14.07;;;;;;;;;;5054250;28;20029;-46
2021/09/17 06:15:17;;;;;;;35.42;12.23;;;;;;;;;;5054386;28;20043;-45
2021/09/17 06:17:44;;;;;;;34.58;10.80;;;;;;;;;;5054218;28;20393;-50
2021/09/17 06:20:12;;;;;;;49.55;18.77;;;;;;;;;;5054158;28;20031;-47
2021/09/17 06:22:39;;;;;;;47.42;16.65;;;;;;;;;;5053957;28;20039;-49
2021/09/17 06:25:06;;;;;;;42.70;11.60;;;;;;;;;;5054029;28;20040;-49
2021/09/17 06:27:32;;;;;;;34.22;11.45;;;;;;;;;;5053888;28;20385;-48
2021/09/17 06:29:58;;;;;;;41.38;11.85;;;;;;;;;;5054272;28;20120;-48
2021/09/17 06:32:24;;;;;;;27.17;12.70;;;;;;;;;;5054141;28;20032;-48
2021/09/17 06:34:50;;;;;;;42.45;14.10;;;;;;;;;;5054090;28;20492;-47
2021/09/17 06:37:16;;;;;;;42.42;16.45;;;;;;;;;;5053926;28;20111;-48
2021/09/17 06:39:43;;;;;;;40.50;15.80;;;;;;;;;;5053724;28;20025;-48
2021/09/17 06:42:09;;;;;;;43.83;21.98;;;;;;;;;;5053744;28;20029;-44
2021/09/17 06:44:35;;;;;;;74.90;38.72;;;;;;;;;;5053806;28;20032;-50
2021/09/17 06:47:01;;;;;;;59.42;27.92;;;;;;;;;;5053730;28;20028;-49
2021/09/17 06:49:27;;;;;;;57.70;27.60;;;;;;;;;;5053821;28;20389;-45
2021/09/17 06:51:53;;;;;;;87.63;49.10;;;;;;;;;;5053726;28;20082;-50
2021/09/17 06:54:19;;;;;;;180.95;122.10;;;;;;;;;;5053671;28;20087;-48
2021/09/17 06:56:46;;;;;;;106.28;62.92;;;;;;;;;;5053590;28;20113;-47
2021/09/17 06:59:12;;;;;;;172.93;107.10;;;;;;;;;;5053453;28;20068;-49
2021/09/17 07:01:40;;;;;;;83.78;44.20;;;;;;;;;;5053489;28;20036;-43
2021/09/17 07:04:06;;;;;;;81.68;49.60;;;;;;;;;;5053370;28;20036;-46
2021/09/17 07:06:36;;;;;;;50.60;29.25;;;;;;;;;;5053455;28;20029;-49
2021/09/17 07:09:03;;;;;;;34.35;14.63;;;;;;;;;;5053329;28;20432;-48
2021/09/17 07:11:31;;;;;;;29.88;13.35;;;;;;;;;;5053319;28;20024;-49
2021/09/17 07:13:57;;;;;;;31.80;6.88;;;;;;;;;;5053257;28;20028;-48
2021/09/17 07:16:23;;;;;;;26.95;7.78;;;;;;;;;;5053234;28;20033;-49
2021/09/17 07:18:49;;;;;;;31.48;9.07;;;;;;;;;;5053246;28;20032;-48
2021/09/17 07:21:15;;;;;;;13.07;6.40;;;;;;;;;;5053189;28;20033;-51
2021/09/17 07:23:41;;;;;;;26.60;6.20;;;;;;;;;;5053167;28;20076;-49
2021/09/17 07:26:07;;;;;;;27.70;14.02;;;;;;;;;;5053166;28;20469;-49
2021/09/17 07:28:33;;;;;;;31.48;16.45;;;;;;;;;;5053110;28;20025;-46
2021/09/17 07:31:00;;;;;;;41.00;19.52;;;;;;;;;;5053173;28;20448;-48
2021/09/17 07:33:29;;;;;;;23.88;10.93;;;;;;;;;;5053108;28;20104;-50
2021/09/17 07:35:55;;;;;;;23.65;12.55;;;;;;;;;;5053292;28;20037;-50
2021/09/17 07:38:21;;;;;;;33.58;16.58;;;;;;;;;;5053066;28;20104;-50
2021/09/17 07:40:47;;;;;;;40.25;24.60;;;;;;;;;;5052925;28;20052;-48
2021/09/17 07:43:13;;;;;;;69.13;48.35;;;;;;;;;;5052425;28;20031;-47
2021/09/17 07:45:39;;;;;;;110.80;78.32;;;;;;;;;;5053039;28;20450;-46
2021/09/17 07:48:10;;;;;;;116.30;80.90;;;;;;;;;;5052906;28;20056;-47
2021/09/17 07:50:39;;;;;;;125.38;74.78;;;;;;;;;;5052972;28;20021;-47
2021/09/17 07:53:05;;;;;;;123.20;71.47;;;;;;;;;;5052887;28;20392;-45
2021/09/17 07:55:34;;;;;;;75.90;43.47;;;;;;;;;;5052849;28;20059;-49
2021/09/17 07:58:00;;;;;;;161.88;92.95;;;;;;;;;;5052740;28;20025;-49
2021/09/17 08:00:28;;;;;;;135.05;76.40;;;;;;;;;;5052785;28;20090;-46
2021/09/17 08:02:55;;;;;;;61.10;32.03;;;;;;;;;;5052695;28;20047;-48
2021/09/17 08:05:21;;;;;;;155.38;109.55;;;;;;;;;;5052653;28;20453;-46
2021/09/17 08:07:47;;;;;;;68.53;41.35;;;;;;;;;;5052688;28;20021;-45
2021/09/17 08:10:13;;;;;;;32.00;19.48;;;;;;;;;;5052785;28;20024;-48
2021/09/17 08:12:39;;;;;;;28.40;16.88;;;;;;;;;;5052623;28;20021;-47
2021/09/17 08:15:05;;;;;;;31.70;16.92;;;;;;;;;;5052694;28;20489;-45
2021/09/17 08:17:31;;;;;;;23.08;8.30;;;;;;;;;;5052645;28;20025;-52
2021/09/17 08:19:58;;;;;;;16.90;7.35;;;;;;;;;;5052626;28;20017;-46
2021/09/17 08:22:25;;;;;;;15.27;6.85;;;;;;;;;;5052643;28;20051;-48
2021/09/17 08:24:51;;;;;;;80.07;17.45;;;;;;;;;;5052501;28;20053;-51
2021/09/17 08:27:19;;;;;;;21.17;7.25;;;;;;;;;;5052536;28;20029;-48
2021/09/17 08:29:45;;;;;;;16.80;5.22;;;;;;;;;;5052707;28;20063;-45
2021/09/17 08:32:11;;;;;;;16.08;5.97;;;;;;;;;;5052631;28;20112;-44
2021/09/17 08:34:37;;;;;;;15.60;5.40;;;;;;;;;;5052625;28;20035;-48
2021/09/17 08:37:07;;;;;;;15.15;4.93;;;;;;;;;;5052779;28;20499;-46
2021/09/17 08:39:35;;;;;;;15.70;8.25;;;;;;;;;;5052486;28;20154;-49
2021/09/17 08:42:02;;;;;;;33.28;16.90;;;;;;;;;;5052168;28;20044;-47
2021/09/17 08:44:28;;;;;;;24.35;9.93;;;;;;;;;;5052562;28;20031;-48
2021/09/17 08:46:54;;;;;;;42.67;24.95;;;;;;;;;;5052371;28;20453;-47
2021/09/17 08:49:24;;;;;;;33.20;16.92;;;;;;;;;;5051274;28;20029;-48
2021/09/17 08:51:50;;;;;;;27.35;14.77;;;;;;;;;;5051209;28;20453;-49
2021/09/17 08:54:16;;;;;;;27.67;12.68;;;;;;;;;;5051104;28;20461;-45
2021/09/17 08:56:42;;;;;;;15.27;6.28;;;;;;;;;;5054276;28;20037;-47
2021/09/17 08:59:08;;;;;;;23.85;11.27;;;;;;;;;;5055227;28;20498;-49
2021/09/17 09:01:38;;;;;;;16.60;7.70;;;;;;;;;;5055238;28;20025;-48
2021/09/17 09:04:08;;;;;;;21.67;9.27;;;;;;;;;;5055269;28;20021;-47
2021/09/17 09:06:35;;;;;;;21.25;8.88;;;;;;;;;;5052379;28;20033;-48
2021/09/17 09:09:01;;;;;;;22.58;10.60;;;;;;;;;;5054748;28;20473;-47
2021/09/17 09:11:30;;;;;;;35.50;26.98;;;;;;;;;;5054602;28;20469;-48
2021/09/17 09:14:02;;;;;;;11.73;5.90;;;;;;;;;;5055785;28;20104;-49
2021/09/17 09:16:29;;;;;;;15.48;4.13;;;;;;;;;;5055651;28;20025;-45
2021/09/17 09:18:55;;;;;;;13.20;4.25;;;;;;;;;;5055557;28;20033;-49
2021/09/17 09:21:28;;;;;;;12.60;4.38;;;;;;;;;;5055413;28;20036;-48
2021/09/17 09:24:13;;;;;;;16.42;4.13;;;;;;;;;;5055285;28;20049;-49
2021/09/17 09:26:39;;;;;;;10.07;4.10;;;;;;;;;;5055430;28;20098;-47
2021/09/17 09:29:08;;;;;;;11.88;4.47;;;;;;;;;;5055457;28;20025;-47
2021/09/17 09:31:41;;;;;;;11.13;4.38;;;;;;;;;;5055297;28;20017;-44
2021/09/17 09:34:09;;;;;;;13.10;5.50;;;;;;;;;;5055084;28;20477;-48
2021/09/17 09:36:36;;;;;;;8.98;4.80;;;;;;;;;;5054909;28;20056;-49
2021/09/17 09:39:04;;;;;;;22.15;10.73;;;;;;;;;;5055413;28;20024;-48
2021/09/17 09:41:32;;;;;;;52.67;33.83;;;;;;;;;;5055921;28;20040;-45
2021/09/17 09:44:00;;;;;;;15.40;9.20;;;;;;;;;;5053489;28;20029;-46
2021/09/17 09:46:33;;;;;;;13.63;6.28;;;;;;;;;;5054852;28;20021;-49
2021/09/17 09:49:01;;;;;;;10.38;4.25;;;;;;;;;;5055087;28;20083;-50
2021/09/17 09:51:27;;;;;;;10.55;3.63;;;;;;;;;;5054268;28;20023;-48
2021/09/17 09:53:53;;;;;;;19.08;4.47;;;;;;;;;;5054343;28;20052;-50
2021/09/17 09:56:22;;;;;;;17.30;4.28;;;;;;;;;;5054309;28;20526;-51
2021/09/17 09:58:49;;;;;;;11.52;4.30;;;;;;;;;;5054331;28;20028;-50
2021/09/17 10:01:19;;;;;;;11.95;3.67;;;;;;;;;;5054172;28;20029;-48
2021/09/17 10:03:52;;;;;;;19.47;3.73;;;;;;;;;;5050475;28;20400;-49
2021/09/17 10:06:18;;;;;;;12.70;3.92;;;;;;;;;;5054153;28;20138;-51
2021/09/17 10:08:45;;;;;;;31.45;14.82;;;;;;;;;;5051550;28;20029;-51
2021/09/17 10:11:11;;;;;;;17.33;6.53;;;;;;;;;;5054054;28;20040;-50
2021/09/17 10:13:38;;;;;;;25.80;12.48;;;;;;;;;;5054023;28;20100;-46
2021/09/17 10:16:04;;;;;;;34.78;21.73;;;;;;;;;;5054077;28;20033;-46
2021/09/17 10:18:30;;;;;;;23.77;12.82;;;;;;;;;;5054001;28;20168;-49
2021/09/17 10:20:57;;;;;;;68.43;52.28;;;;;;;;;;5051185;28;20108;-47
2021/09/17 10:23:34;;;;;;;59.10;33.80;;;;;;;;;;5052442;28;20029;-48
2021/09/17 10:26:10;;;;;;;50.65;24.50;;;;;;;;;;5053939;28;20044;-50
2021/09/17 10:28:56;;;;;;;610.75;348.05;;;;;;;;;;5053897;28;20096;-47
2021/09/17 10:31:22;;;;;;;96.63;50.60;;;;;;;;;;5053587;28;20020;-48
2021/09/17 10:33:48;;;;;;;125.72;63.75;;;;;;;;;;5053872;28;20017;-50
2021/09/17 10:36:14;;;;;;;545.42;334.25;;;;;;;;;;5053755;28;20078;-51
2021/09/17 10:38:40;;;;;;;222.82;118.60;;;;;;;;;;5053731;28;20017;-50
2021/09/17 10:41:07;;;;;;;115.30;57.17;;;;;;;;;;5053594;28;20124;-49
2021/09/17 10:43:36;;;;;;;254.80;136.52;;;;;;;;;;5053691;28;20100;-49
2021/09/17 10:46:03;;;;;;;70.63;39.45;;;;;;;;;;5053415;28;20021;-49
2021/09/17 10:48:52;;;;;;;165.13;95.43;;;;;;;;;;5053554;28;20020;-49
2021/09/17 10:51:31;;;;;;;108.78;63.35;;;;;;;;;;5052738;28;20037;-46
2021/09/17 10:54:01;;;;;;;56.78;29.55;;;;;;;;;;5053321;28;20029;-50
2021/09/17 10:56:28;;;;;;;22.10;12.23;;;;;;;;;;5053214;28;20036;-50
2021/09/17 10:59:21;;;;;;;22.17;9.00;;;;;;;;;;5053366;28;20036;-47
2021/09/17 11:01:51;;;;;;;14.68;5.50;;;;;;;;;;5051062;28;20037;-49
2021/09/17 11:04:25;;;;;;;23.42;13.27;;;;;;;;;;5053501;28;20033;-56
2021/09/17 11:06:52;;;;;;;27.58;15.95;;;;;;;;;;5051819;28;20480;-51
2021/09/17 11:09:38;;;;;;;23.23;13.35;;;;;;;;;;5053177;28;20067;-52
2021/09/17 11:12:19;;;;;;;21.95;7.10;;;;;;;;;;5050542;28;20029;-49
2021/09/17 11:15:04;;;;;;;16.20;7.82;;;;;;;;;;5050732;28;20029;-50
2021/09/17 11:17:37;;;;;;;16.25;7.20;;;;;;;;;;5050797;28;20021;-49
2021/09/17 11:20:04;;;;;;;20.75;12.18;;;;;;;;;;5050480;28;20059;-48
2021/09/17 11:22:30;;;;;;;17.95;10.50;;;;;;;;;;5052868;28;20028;-48
2021/09/17 11:25:05;;;;;;;10.32;6.15;;;;;;;;;;5052838;28;20045;-50
2021/09/17 11:27:31;;;;;;;16.92;10.15;;;;;;;;;;5051329;28;20013;-48
2021/09/17 11:30:04;;;;;;;23.90;9.38;;;;;;;;;;5052936;28;20017;-47
2021/09/17 11:32:30;;;;;;;23.73;13.50;;;;;;;;;;5050062;28;20032;-48
2021/09/17 11:35:04;;;;;;;18.98;7.00;;;;;;;;;;5053210;28;20033;-49
2021/09/17 11:37:30;;;;;;;18.38;9.95;;;;;;;;;;5053636;28;20060;-47
2021/09/17 11:40:02;;;;;;;13.80;5.55;;;;;;;;;;5053272;28;20112;-49
2021/09/17 11:42:29;;;;;;;11.10;4.60;;;;;;;;;;5053257;28;20451;-48
2021/09/17 11:44:55;;;;;;;102.63;20.83;;;;;;;;;;5053062;28;20024;-46
2021/09/17 11:47:28;;;;;;;16.40;5.22;;;;;;;;;;5053459;28;20435;-48
2021/09/17 11:49:55;;;;;;;29.75;14.75;;;;;;;;;;5053193;28;20096;-46
2021/09/17 11:52:22;;;;;;;28.40;17.38;;;;;;;;;;5053472;28;20021;-47
2021/09/17 11:54:58;;;;;;;19.83;9.13;;;;;;;;;;5053158;28;20025;-45
2021/09/17 11:57:31;;;;;;;14.85;4.60;;;;;;;;;;5052983;28;20033;-46
2021/09/17 11:59:57;;;;;;;22.17;11.88;;;;;;;;;;5053012;28;20116;-47
2021/09/17 12:02:25;;;;;;;13.32;5.30;;;;;;;;;;5052147;28;20029;-44
2021/09/17 12:04:58;;;;;;;11.40;4.40;;;;;;;;;;5051621;28;20031;-44
2021/09/17 12:07:25;;;;;;;15.88;11.38;;;;;;;;;;5051708;28;20021;-47
2021/09/17 12:09:53;;;;;;;13.02;7.10;;;;;;;;;;5051685;28;20025;-47
2021/09/17 12:12:22;;;;;;;17.88;9.32;;;;;;;;;;5051413;28;20047;-48
2021/09/17 12:14:50;;;;;;;30.95;16.48;;;;;;;;;;5051643;28;20013;-48
2021/09/17 12:17:16;;;;;;;14.57;7.88;;;;;;;;;;5051847;28;20040;-47
2021/09/17 12:20:01;;;;;;;15.00;7.68;;;;;;;;;;5051608;28;20380;-46
2021/09/17 12:22:31;;;;;;;11.18;5.90;;;;;;;;;;5049203;28;20036;-45
2021/09/17 12:25:08;;;;;;;13.35;5.85;;;;;;;;;;5051506;28;20041;-48
2021/09/17 12:27:37;;;;;;;11.05;4.88;;;;;;;;;;5050215;28;20380;-48
2021/09/17 12:30:05;;;;;;;37.90;21.67;;;;;;;;;;5050791;28;20503;-45
2021/09/17 12:32:31;;;;;;;20.20;12.05;;;;;;;;;;5054592;28;20096;-44
2021/09/17 12:35:11;;;;;;;19.98;10.90;;;;;;;;;;5054917;28;20053;-49
2021/09/17 12:37:38;;;;;;;28.75;20.80;;;;;;;;;;5053881;28;20507;-48
2021/09/17 12:40:15;;;;;;;18.13;9.77;;;;;;;;;;5055330;28;20056;-47
2021/09/17 12:42:42;;;;;;;15.50;8.63;;;;;;;;;;5054965;28;20111;-47
2021/09/17 12:45:10;;;;;;;11.85;7.07;;;;;;;;;;5055100;28;20109;-48
2021/09/17 12:47:36;;;;;;;13.57;5.38;;;;;;;;;;5054991;28;20064;-46
2021/09/17 12:50:07;;;;;;;9.68;5.10;;;;;;;;;;5054834;28;20029;-46
2021/09/17 12:52:36;;;;;;;12.40;3.63;;;;;;;;;;5052875;28;20024;-49
2021/09/17 12:55:05;;;;;;;6.10;3.50;;;;;;;;;;5054785;28;20025;-47
2021/09/17 12:57:31;;;;;;;17.65;14.32;;;;;;;;;;5054832;28;20071;-46
2021/09/17 13:00:01;;;;;;;6.78;4.63;;;;;;;;;;5055013;28;20021;-46
2021/09/17 13:02:27;;;;;;;13.82;6.38;;;;;;;;;;5056001;28;20033;-49
2021/09/17 13:05:04;;;;;;;16.20;6.75;;;;;;;;;;5055973;28;20025;-51
2021/09/17 13:07:30;;;;;;;22.02;8.63;;;;;;;;;;5056160;28;20397;-47
2021/09/17 13:09:57;;;;;;;9.40;5.47;;;;;;;;;;5055980;28;20048;-47
2021/09/17 13:12:23;;;;;;;19.52;10.38;;;;;;;;;;5055742;28;20461;-45
2021/09/17 13:14:49;;;;;;;19.90;10.52;;;;;;;;;;5055931;28;20032;-49
2021/09/17 13:17:15;;;;;;;12.85;6.82;;;;;;;;;;5055756;28;20594;-47
2021/09/17 13:19:46;;;;;;;7.72;4.07;;;;;;;;;;5055637;28;20064;-49
2021/09/17 13:22:12;;;;;;;;;;;;;;;;;;5056306;28;20036;-49
2021/09/17 13:24:38;;;;;;;15.68;6.68;;;;;;;;;;5055680;28;19917;-48
2021/09/17 13:27:04;;;;;;;14.77;6.50;;;;;;;;;;5055662;28;20162;-46
2021/09/17 13:29:30;;;;;;;28.70;14.45;;;;;;;;;;5055554;28;20033;-45
2021/09/17 13:31:56;;;;;;;11.35;7.15;;;;;;;;;;5055647;28;20546;-50
2021/09/17 13:34:22;;;;;;;7.90;4.40;;;;;;;;;;5054080;28;20433;-46
2021/09/17 13:36:48;;;;;;;9.05;3.45;;;;;;;;;;5055630;28;20028;-51
2021/09/17 13:39:17;;;;;;;5.55;2.85;;;;;;;;;;5055422;28;20025;-48
2021/09/17 13:41:43;;;;;;;9.82;3.40;;;;;;;;;;5054726;28;20071;-52
2021/09/17 13:44:09;;;;;;;13.98;3.55;;;;;;;;;;5055242;28;20024;-51
2021/09/17 13:46:36;;;;;;;4.50;3.10;;;;;;;;;;5055148;28;20087;-51
2021/09/17 13:49:04;;;;;;;5.65;3.28;;;;;;;;;;5055240;28;20025;-48
2021/09/17 13:51:30;;;;;;;5.05;3.35;;;;;;;;;;5055122;28;20026;-50
2021/09/17 13:53:56;;;;;;;3.75;2.10;;;;;;;;;;5055276;28;20052;-49
2021/09/17 13:56:22;;;;;;;6.45;1.77;;;;;;;;;;5055085;28;20431;-49
2021/09/17 13:58:48;;;;;;;6.10;1.95;;;;;;;;;;5054965;28;20032;-49
2021/09/17 14:01:14;;;;;;;2.47;1.77;;;;;;;;;;5054962;28;20034;-51
2021/09/17 14:03:40;;;;;;;3.03;1.50;;;;;;;;;;5054768;28;20511;-49
2021/09/17 14:06:06;;;;;;;4.88;2.08;;;;;;;;;;5054853;28;20126;-51
2021/09/17 14:08:32;;;;;;;3.90;1.77;;;;;;;;;;5055054;28;20017;-49
2021/09/17 14:10:58;;;;;;;2.13;1.30;;;;;;;;;;5054724;28;20147;-47
2021/09/17 14:13:24;;;;;;;4.25;1.90;;;;;;;;;;5054646;28;20079;-49
2021/09/17 14:15:50;;;;;;;2.60;1.73;;;;;;;;;;5054744;28;20435;-49
2021/09/17 14:18:17;;;;;;;4.53;1.30;;;;;;;;;;5054623;28;20104;-51
2021/09/17 14:20:43;;;;;;;1.42;1.33;;;;;;;;;;5054723;28;20384;-49
2021/09/17 14:23:09;;;;;;;4.00;1.58;;;;;;;;;;5054691;28;20053;-50
2021/09/17 14:25:35;;;;;;;7.90;1.92;;;;;;;;;;5054443;28;20358;-49